sensor_id;sensor_type;location;lat;lon;timestamp;P1;durP1;ratioP1;P2;durP2;ratioP2
16775;SDS011;8505;49.456;8.164;2023-06-22T00:01:21;8.80;;;6.10;;
16775;SDS011;8505;49.456;8.164;2023-06-22T00:03:49;8.80;;;6.30;;
16775;SDS011;8505;49.456;8.164;2023-06-22T00:06:18;7.82;;;6.00;;
16775;SDS011;8505;49.456;8.164;2023-06-22T00:08:47;7.45;;;6.07;;
16775;SDS011;8505;49.456;8.164;2023-06-22T00:11:14;8.30;;;6.10;;
16775;SDS011;8505;49.456;8.164;2023-06-22T00:13:42;9.60;;;6.00;;
16775;SDS011;8505;49.456;8.164;2023-06-22T00:16:10;7.95;;;5.90;;
16775;SDS011;8505;49.456;8.164;2023-06-22T00:18:38;8.77;;;6.03;;
16775;SDS011;8505;49.456;8.164;2023-06-22T00:21:05;7.60;;;5.75;;
16775;SDS011;8505;49.456;8.164;2023-06-22T00:23:36;8.55;;;5.82;;
16775;SDS011;8505;49.456;8.164;2023-06-22T00:26:04;6.88;;;5.40;;
16775;SDS011;8505;49.456;8.164;2023-06-22T00:28:31;7.80;;;5.50;;
16775;SDS011;8505;49.456;8.164;2023-06-22T00:30:59;7.20;;;5.60;;
16775;SDS011;8505;49.456;8.164;2023-06-22T00:33:28;7.35;;;4.95;;
16775;SDS011;8505;49.456;8.164;2023-06-22T00:35:55;7.82;;;4.95;;
16775;SDS011;8505;49.456;8.164;2023-06-22T00:38:23;13.30;;;6.00;;
16775;SDS011;8505;49.456;8.164;2023-06-22T00:40:52;9.07;;;5.40;;
16775;SDS011;8505;49.456;8.164;2023-06-22T00:43:20;10.40;;;5.65;;
16775;SDS011;8505;49.456;8.164;2023-06-22T00:45:48;10.45;;;5.68;;
16775;SDS011;8505;49.456;8.164;2023-06-22T00:48:16;10.50;;;5.75;;
16775;SDS011;8505;49.456;8.164;2023-06-22T00:50:44;9.70;;;5.85;;
16775;SDS011;8505;49.456;8.164;2023-06-22T00:53:16;13.38;;;6.00;;
16775;SDS011;8505;49.456;8.164;2023-06-22T00:55:45;8.55;;;5.60;;
16775;SDS011;8505;49.456;8.164;2023-06-22T00:58:15;10.70;;;6.28;;
16775;SDS011;8505;49.456;8.164;2023-06-22T01:00:43;9.40;;;5.95;;
16775;SDS011;8505;49.456;8.164;2023-06-22T01:03:11;10.65;;;5.88;;
16775;SDS011;8505;49.456;8.164;2023-06-22T01:05:39;9.88;;;6.07;;
16775;SDS011;8505;49.456;8.164;2023-06-22T01:08:12;9.30;;;5.88;;
16775;SDS011;8505;49.456;8.164;2023-06-22T01:10:50;9.73;;;6.22;;
16775;SDS011;8505;49.456;8.164;2023-06-22T01:13:25;8.30;;;6.00;;
16775;SDS011;8505;49.456;8.164;2023-06-22T01:16:00;10.77;;;6.47;;
16775;SDS011;8505;49.456;8.164;2023-06-22T01:18:30;11.60;;;6.67;;
16775;SDS011;8505;49.456;8.164;2023-06-22T01:21:03;11.07;;;7.18;;
16775;SDS011;8505;49.456;8.164;2023-06-22T01:23:38;10.07;;;6.80;;
16775;SDS011;8505;49.456;8.164;2023-06-22T01:26:18;10.60;;;7.30;;
16775;SDS011;8505;49.456;8.164;2023-06-22T01:28:51;12.85;;;7.57;;
16775;SDS011;8505;49.456;8.164;2023-06-22T01:31:22;13.48;;;7.43;;
16775;SDS011;8505;49.456;8.164;2023-06-22T01:33:52;12.67;;;7.77;;
16775;SDS011;8505;49.456;8.164;2023-06-22T01:36:23;11.50;;;8.02;;
16775;SDS011;8505;49.456;8.164;2023-06-22T01:38:52;12.20;;;7.90;;
16775;SDS011;8505;49.456;8.164;2023-06-22T01:41:21;12.80;;;8.47;;
16775;SDS011;8505;49.456;8.164;2023-06-22T01:43:53;11.73;;;8.32;;
16775;SDS011;8505;49.456;8.164;2023-06-22T01:46:22;13.57;;;8.50;;
16775;SDS011;8505;49.456;8.164;2023-06-22T01:48:50;11.80;;;8.50;;
16775;SDS011;8505;49.456;8.164;2023-06-22T01:51:19;12.13;;;8.45;;
16775;SDS011;8505;49.456;8.164;2023-06-22T01:53:48;11.68;;;8.48;;
16775;SDS011;8505;49.456;8.164;2023-06-22T01:56:15;12.50;;;8.50;;
16775;SDS011;8505;49.456;8.164;2023-06-22T01:58:46;12.27;;;8.70;;
16775;SDS011;8505;49.456;8.164;2023-06-22T02:01:23;10.50;;;8.32;;
16775;SDS011;8505;49.456;8.164;2023-06-22T02:03:58;14.23;;;8.77;;
16775;SDS011;8505;49.456;8.164;2023-06-22T02:06:32;13.82;;;9.43;;
16775;SDS011;8505;49.456;8.164;2023-06-22T02:09:06;13.90;;;9.45;;
16775;SDS011;8505;49.456;8.164;2023-06-22T02:11:37;13.02;;;9.40;;
16775;SDS011;8505;49.456;8.164;2023-06-22T02:14:08;13.48;;;9.23;;
16775;SDS011;8505;49.456;8.164;2023-06-22T02:16:38;13.15;;;9.38;;
16775;SDS011;8505;49.456;8.164;2023-06-22T02:19:06;15.25;;;9.70;;
16775;SDS011;8505;49.456;8.164;2023-06-22T02:21:34;13.73;;;9.93;;
16775;SDS011;8505;49.456;8.164;2023-06-22T02:24:05;13.60;;;10.15;;
16775;SDS011;8505;49.456;8.164;2023-06-22T02:26:33;14.93;;;10.60;;
16775;SDS011;8505;49.456;8.164;2023-06-22T02:29:01;16.10;;;11.05;;
16775;SDS011;8505;49.456;8.164;2023-06-22T02:31:29;15.67;;;11.57;;
16775;SDS011;8505;49.456;8.164;2023-06-22T02:33:59;16.07;;;11.43;;
16775;SDS011;8505;49.456;8.164;2023-06-22T02:36:28;16.00;;;11.25;;
16775;SDS011;8505;49.456;8.164;2023-06-22T02:38:56;16.42;;;11.90;;
16775;SDS011;8505;49.456;8.164;2023-06-22T02:41:25;15.27;;;11.55;;
16775;SDS011;8505;49.456;8.164;2023-06-22T02:43:53;13.63;;;10.73;;
16775;SDS011;8505;49.456;8.164;2023-06-22T02:46:20;14.77;;;11.17;;
16775;SDS011;8505;49.456;8.164;2023-06-22T02:48:48;15.32;;;11.63;;
16775;SDS011;8505;49.456;8.164;2023-06-22T02:51:17;15.85;;;11.65;;
16775;SDS011;8505;49.456;8.164;2023-06-22T02:53:45;16.90;;;12.05;;
16775;SDS011;8505;49.456;8.164;2023-06-22T02:56:13;17.30;;;12.25;;
16775;SDS011;8505;49.456;8.164;2023-06-22T02:58:42;17.33;;;12.80;;
16775;SDS011;8505;49.456;8.164;2023-06-22T03:01:09;17.33;;;13.50;;
16775;SDS011;8505;49.456;8.164;2023-06-22T03:03:39;18.58;;;13.52;;
16775;SDS011;8505;49.456;8.164;2023-06-22T03:06:07;17.58;;;12.95;;
16775;SDS011;8505;49.456;8.164;2023-06-22T03:08:42;17.42;;;12.30;;
16775;SDS011;8505;49.456;8.164;2023-06-22T03:11:09;18.05;;;12.40;;
16775;SDS011;8505;49.456;8.164;2023-06-22T03:13:37;16.43;;;12.73;;
16775;SDS011;8505;49.456;8.164;2023-06-22T03:16:05;15.88;;;12.35;;
16775;SDS011;8505;49.456;8.164;2023-06-22T03:18:33;18.40;;;13.33;;
16775;SDS011;8505;49.456;8.164;2023-06-22T03:21:00;16.60;;;12.77;;
16775;SDS011;8505;49.456;8.164;2023-06-22T03:23:29;17.75;;;14.05;;
16775;SDS011;8505;49.456;8.164;2023-06-22T03:25:58;19.10;;;15.00;;
16775;SDS011;8505;49.456;8.164;2023-06-22T03:28:26;18.58;;;14.35;;
16775;SDS011;8505;49.456;8.164;2023-06-22T03:30:53;19.30;;;14.23;;
16775;SDS011;8505;49.456;8.164;2023-06-22T03:33:21;18.30;;;13.38;;
16775;SDS011;8505;49.456;8.164;2023-06-22T03:35:49;18.50;;;13.73;;
16775;SDS011;8505;49.456;8.164;2023-06-22T03:38:17;17.90;;;13.53;;
16775;SDS011;8505;49.456;8.164;2023-06-22T03:40:45;18.25;;;13.77;;
16775;SDS011;8505;49.456;8.164;2023-06-22T03:43:14;19.00;;;13.53;;
16775;SDS011;8505;49.456;8.164;2023-06-22T03:45:42;18.47;;;13.80;;
16775;SDS011;8505;49.456;8.164;2023-06-22T03:48:11;19.15;;;14.70;;
16775;SDS011;8505;49.456;8.164;2023-06-22T03:50:39;19.58;;;14.52;;
16775;SDS011;8505;49.456;8.164;2023-06-22T03:53:07;19.60;;;15.02;;
16775;SDS011;8505;49.456;8.164;2023-06-22T03:55:35;20.20;;;14.30;;
16775;SDS011;8505;49.456;8.164;2023-06-22T03:58:03;18.20;;;14.15;;
16775;SDS011;8505;49.456;8.164;2023-06-22T04:00:33;18.13;;;13.73;;
16775;SDS011;8505;49.456;8.164;2023-06-22T04:03:01;17.30;;;13.50;;
16775;SDS011;8505;49.456;8.164;2023-06-22T04:05:31;17.08;;;13.68;;
16775;SDS011;8505;49.456;8.164;2023-06-22T04:07:59;16.02;;;12.63;;
16775;SDS011;8505;49.456;8.164;2023-06-22T04:10:27;15.45;;;12.30;;
16775;SDS011;8505;49.456;8.164;2023-06-22T04:12:55;14.40;;;11.80;;
16775;SDS011;8505;49.456;8.164;2023-06-22T04:15:23;14.82;;;11.57;;
16775;SDS011;8505;49.456;8.164;2023-06-22T04:17:54;15.35;;;11.70;;
16775;SDS011;8505;49.456;8.164;2023-06-22T04:20:23;14.93;;;11.77;;
16775;SDS011;8505;49.456;8.164;2023-06-22T04:22:55;16.30;;;13.13;;
16775;SDS011;8505;49.456;8.164;2023-06-22T04:25:22;17.50;;;13.10;;
16775;SDS011;8505;49.456;8.164;2023-06-22T04:27:50;17.83;;;13.57;;
16775;SDS011;8505;49.456;8.164;2023-06-22T04:30:18;17.95;;;13.60;;
16775;SDS011;8505;49.456;8.164;2023-06-22T04:32:46;18.05;;;12.88;;
16775;SDS011;8505;49.456;8.164;2023-06-22T04:35:26;16.77;;;12.68;;
16775;SDS011;8505;49.456;8.164;2023-06-22T04:37:57;17.23;;;12.77;;
16775;SDS011;8505;49.456;8.164;2023-06-22T04:40:25;15.65;;;12.27;;
16775;SDS011;8505;49.456;8.164;2023-06-22T04:42:54;16.45;;;12.25;;
16775;SDS011;8505;49.456;8.164;2023-06-22T04:45:21;16.35;;;11.98;;
16775;SDS011;8505;49.456;8.164;2023-06-22T04:47:49;16.17;;;12.38;;
16775;SDS011;8505;49.456;8.164;2023-06-22T04:50:19;15.30;;;11.77;;
16775;SDS011;8505;49.456;8.164;2023-06-22T04:52:49;14.38;;;11.45;;
16775;SDS011;8505;49.456;8.164;2023-06-22T04:55:18;16.50;;;11.52;;
16775;SDS011;8505;49.456;8.164;2023-06-22T04:57:47;16.08;;;11.40;;
16775;SDS011;8505;49.456;8.164;2023-06-22T05:00:16;12.63;;;10.50;;
16775;SDS011;8505;49.456;8.164;2023-06-22T05:02:45;14.93;;;12.18;;
16775;SDS011;8505;49.456;8.164;2023-06-22T05:05:14;14.07;;;10.88;;
16775;SDS011;8505;49.456;8.164;2023-06-22T05:07:43;15.73;;;12.00;;
16775;SDS011;8505;49.456;8.164;2023-06-22T05:10:16;15.93;;;11.23;;
16775;SDS011;8505;49.456;8.164;2023-06-22T05:12:44;17.35;;;11.50;;
16775;SDS011;8505;49.456;8.164;2023-06-22T05:15:12;14.23;;;10.70;;
16775;SDS011;8505;49.456;8.164;2023-06-22T05:17:40;13.77;;;10.30;;
16775;SDS011;8505;49.456;8.164;2023-06-22T05:20:09;16.50;;;11.00;;
16775;SDS011;8505;49.456;8.164;2023-06-22T05:22:38;15.67;;;10.87;;
16775;SDS011;8505;49.456;8.164;2023-06-22T05:25:10;13.70;;;10.90;;
16775;SDS011;8505;49.456;8.164;2023-06-22T05:27:57;14.48;;;11.77;;
16775;SDS011;8505;49.456;8.164;2023-06-22T05:30:43;13.18;;;10.80;;
16775;SDS011;8505;49.456;8.164;2023-06-22T05:33:10;14.60;;;10.80;;
16775;SDS011;8505;49.456;8.164;2023-06-22T05:35:38;16.45;;;11.55;;
16775;SDS011;8505;49.456;8.164;2023-06-22T05:38:07;12.63;;;10.60;;
16775;SDS011;8505;49.456;8.164;2023-06-22T05:40:35;15.02;;;10.88;;
16775;SDS011;8505;49.456;8.164;2023-06-22T05:43:05;15.53;;;11.03;;
16775;SDS011;8505;49.456;8.164;2023-06-22T05:45:32;13.75;;;10.82;;
16775;SDS011;8505;49.456;8.164;2023-06-22T05:48:00;15.00;;;11.30;;
16775;SDS011;8505;49.456;8.164;2023-06-22T05:50:28;13.30;;;10.57;;
16775;SDS011;8505;49.456;8.164;2023-06-22T05:52:56;14.63;;;11.63;;
16775;SDS011;8505;49.456;8.164;2023-06-22T05:55:24;17.90;;;11.80;;
16775;SDS011;8505;49.456;8.164;2023-06-22T05:57:52;13.63;;;11.05;;
16775;SDS011;8505;49.456;8.164;2023-06-22T06:00:21;14.45;;;11.02;;
16775;SDS011;8505;49.456;8.164;2023-06-22T06:02:49;13.35;;;10.40;;
16775;SDS011;8505;49.456;8.164;2023-06-22T06:05:18;14.43;;;10.30;;
16775;SDS011;8505;49.456;8.164;2023-06-22T06:07:46;13.70;;;10.82;;
16775;SDS011;8505;49.456;8.164;2023-06-22T06:10:14;16.58;;;10.18;;
16775;SDS011;8505;49.456;8.164;2023-06-22T06:12:41;13.68;;;10.45;;
16775;SDS011;8505;49.456;8.164;2023-06-22T06:15:09;15.38;;;11.25;;
16775;SDS011;8505;49.456;8.164;2023-06-22T06:17:46;14.73;;;10.18;;
16775;SDS011;8505;49.456;8.164;2023-06-22T06:20:14;13.53;;;9.73;;
16775;SDS011;8505;49.456;8.164;2023-06-22T06:22:42;12.55;;;10.48;;
16775;SDS011;8505;49.456;8.164;2023-06-22T06:25:10;14.73;;;10.80;;
16775;SDS011;8505;49.456;8.164;2023-06-22T06:27:42;15.35;;;11.05;;
16775;SDS011;8505;49.456;8.164;2023-06-22T06:30:10;15.05;;;10.90;;
16775;SDS011;8505;49.456;8.164;2023-06-22T06:32:39;16.55;;;9.50;;
16775;SDS011;8505;49.456;8.164;2023-06-22T06:35:09;14.73;;;10.50;;
16775;SDS011;8505;49.456;8.164;2023-06-22T06:37:39;14.95;;;10.85;;
16775;SDS011;8505;49.456;8.164;2023-06-22T06:40:09;12.45;;;9.50;;
16775;SDS011;8505;49.456;8.164;2023-06-22T06:42:38;13.77;;;9.43;;
16775;SDS011;8505;49.456;8.164;2023-06-22T06:45:08;12.75;;;9.82;;
16775;SDS011;8505;49.456;8.164;2023-06-22T06:47:36;13.20;;;8.90;;
16775;SDS011;8505;49.456;8.164;2023-06-22T06:50:05;12.65;;;9.93;;
16775;SDS011;8505;49.456;8.164;2023-06-22T06:52:35;11.50;;;9.20;;
16775;SDS011;8505;49.456;8.164;2023-06-22T06:55:04;12.38;;;9.25;;
16775;SDS011;8505;49.456;8.164;2023-06-22T06:57:38;12.17;;;9.40;;
16775;SDS011;8505;49.456;8.164;2023-06-22T07:00:07;11.75;;;9.60;;
16775;SDS011;8505;49.456;8.164;2023-06-22T07:02:39;11.93;;;9.02;;
16775;SDS011;8505;49.456;8.164;2023-06-22T07:05:08;12.60;;;9.32;;
16775;SDS011;8505;49.456;8.164;2023-06-22T07:07:38;14.00;;;9.13;;
16775;SDS011;8505;49.456;8.164;2023-06-22T07:10:06;11.50;;;7.95;;
16775;SDS011;8505;49.456;8.164;2023-06-22T07:12:34;14.10;;;9.40;;
16775;SDS011;8505;49.456;8.164;2023-06-22T07:15:03;11.40;;;9.70;;
16775;SDS011;8505;49.456;8.164;2023-06-22T07:17:32;12.45;;;9.40;;
16775;SDS011;8505;49.456;8.164;2023-06-22T07:20:00;10.93;;;8.90;;
16775;SDS011;8505;49.456;8.164;2023-06-22T07:22:28;11.23;;;8.63;;
16775;SDS011;8505;49.456;8.164;2023-06-22T07:24:57;13.15;;;8.40;;
16775;SDS011;8505;49.456;8.164;2023-06-22T07:27:25;12.55;;;9.05;;
16775;SDS011;8505;49.456;8.164;2023-06-22T07:29:53;11.90;;;9.82;;
16775;SDS011;8505;49.456;8.164;2023-06-22T07:32:21;13.23;;;10.50;;
16775;SDS011;8505;49.456;8.164;2023-06-22T07:34:49;13.90;;;10.05;;
16775;SDS011;8505;49.456;8.164;2023-06-22T07:37:17;13.52;;;9.80;;
16775;SDS011;8505;49.456;8.164;2023-06-22T07:39:45;12.55;;;8.63;;
16775;SDS011;8505;49.456;8.164;2023-06-22T07:42:14;13.15;;;9.20;;
16775;SDS011;8505;49.456;8.164;2023-06-22T07:44:45;13.00;;;8.83;;
16775;SDS011;8505;49.456;8.164;2023-06-22T07:47:13;12.90;;;9.95;;
16775;SDS011;8505;49.456;8.164;2023-06-22T07:49:41;11.77;;;8.57;;
16775;SDS011;8505;49.456;8.164;2023-06-22T07:52:08;12.18;;;9.10;;
16775;SDS011;8505;49.456;8.164;2023-06-22T07:54:37;11.10;;;8.52;;
16775;SDS011;8505;49.456;8.164;2023-06-22T07:57:05;10.40;;;8.75;;
16775;SDS011;8505;49.456;8.164;2023-06-22T07:59:34;10.90;;;8.40;;
16775;SDS011;8505;49.456;8.164;2023-06-22T08:02:02;11.67;;;8.13;;
16775;SDS011;8505;49.456;8.164;2023-06-22T08:04:30;12.82;;;9.02;;
16775;SDS011;8505;49.456;8.164;2023-06-22T08:07:00;12.38;;;9.63;;
16775;SDS011;8505;49.456;8.164;2023-06-22T08:09:29;10.73;;;7.90;;
16775;SDS011;8505;49.456;8.164;2023-06-22T08:11:58;9.90;;;7.95;;
16775;SDS011;8505;49.456;8.164;2023-06-22T08:14:26;10.90;;;8.55;;
16775;SDS011;8505;49.456;8.164;2023-06-22T08:16:56;11.55;;;8.05;;
16775;SDS011;8505;49.456;8.164;2023-06-22T08:19:24;12.00;;;7.67;;
16775;SDS011;8505;49.456;8.164;2023-06-22T08:21:52;10.27;;;7.93;;
16775;SDS011;8505;49.456;8.164;2023-06-22T08:24:20;10.38;;;7.55;;
16775;SDS011;8505;49.456;8.164;2023-06-22T08:26:51;10.50;;;7.90;;
16775;SDS011;8505;49.456;8.164;2023-06-22T08:29:19;10.55;;;7.63;;
16775;SDS011;8505;49.456;8.164;2023-06-22T08:31:47;11.73;;;7.75;;
16775;SDS011;8505;49.456;8.164;2023-06-22T08:34:16;10.70;;;7.80;;
16775;SDS011;8505;49.456;8.164;2023-06-22T08:36:47;10.80;;;8.43;;
16775;SDS011;8505;49.456;8.164;2023-06-22T08:39:18;10.88;;;8.02;;
16775;SDS011;8505;49.456;8.164;2023-06-22T08:41:46;10.57;;;8.63;;
16775;SDS011;8505;49.456;8.164;2023-06-22T08:44:16;13.13;;;8.02;;
16775;SDS011;8505;49.456;8.164;2023-06-22T08:46:46;12.40;;;8.70;;
16775;SDS011;8505;49.456;8.164;2023-06-22T08:49:18;12.20;;;9.23;;
16775;SDS011;8505;49.456;8.164;2023-06-22T08:51:46;10.98;;;8.90;;
16775;SDS011;8505;49.456;8.164;2023-06-22T08:54:15;9.45;;;7.55;;
16775;SDS011;8505;49.456;8.164;2023-06-22T08:56:43;11.00;;;8.05;;
16775;SDS011;8505;49.456;8.164;2023-06-22T08:59:11;12.88;;;9.32;;
16775;SDS011;8505;49.456;8.164;2023-06-22T09:01:39;13.07;;;9.18;;
16775;SDS011;8505;49.456;8.164;2023-06-22T09:04:07;12.93;;;9.00;;
16775;SDS011;8505;49.456;8.164;2023-06-22T09:06:37;12.20;;;9.27;;
16775;SDS011;8505;49.456;8.164;2023-06-22T09:09:12;11.90;;;8.40;;
16775;SDS011;8505;49.456;8.164;2023-06-22T09:11:40;12.13;;;8.57;;
16775;SDS011;8505;49.456;8.164;2023-06-22T09:14:08;10.65;;;7.78;;
16775;SDS011;8505;49.456;8.164;2023-06-22T09:16:36;10.20;;;7.25;;
16775;SDS011;8505;49.456;8.164;2023-06-22T09:19:04;10.30;;;6.93;;
16775;SDS011;8505;49.456;8.164;2023-06-22T09:21:32;10.07;;;7.47;;
16775;SDS011;8505;49.456;8.164;2023-06-22T09:24:02;12.45;;;7.18;;
16775;SDS011;8505;49.456;8.164;2023-06-22T09:26:30;11.17;;;6.53;;
16775;SDS011;8505;49.456;8.164;2023-06-22T09:28:58;9.48;;;6.80;;
16775;SDS011;8505;49.456;8.164;2023-06-22T09:31:26;10.52;;;6.57;;
16775;SDS011;8505;49.456;8.164;2023-06-22T09:33:54;11.25;;;7.10;;
16775;SDS011;8505;49.456;8.164;2023-06-22T09:36:22;11.07;;;7.32;;
16775;SDS011;8505;49.456;8.164;2023-06-22T09:38:50;13.00;;;7.50;;
16775;SDS011;8505;49.456;8.164;2023-06-22T09:41:26;11.85;;;8.43;;
16775;SDS011;8505;49.456;8.164;2023-06-22T09:43:54;10.30;;;7.38;;
16775;SDS011;8505;49.456;8.164;2023-06-22T09:46:22;11.27;;;7.72;;
16775;SDS011;8505;49.456;8.164;2023-06-22T09:48:51;9.23;;;6.53;;
16775;SDS011;8505;49.456;8.164;2023-06-22T09:51:19;10.05;;;7.03;;
16775;SDS011;8505;49.456;8.164;2023-06-22T09:53:48;10.10;;;6.70;;
16775;SDS011;8505;49.456;8.164;2023-06-22T09:56:16;11.70;;;6.88;;
16775;SDS011;8505;49.456;8.164;2023-06-22T09:58:45;8.80;;;5.70;;
16775;SDS011;8505;49.456;8.164;2023-06-22T10:01:18;11.23;;;5.90;;
16775;SDS011;8505;49.456;8.164;2023-06-22T10:03:46;8.45;;;5.40;;
16775;SDS011;8505;49.456;8.164;2023-06-22T10:06:15;7.93;;;5.63;;
16775;SDS011;8505;49.456;8.164;2023-06-22T10:08:42;9.77;;;5.60;;
16775;SDS011;8505;49.456;8.164;2023-06-22T10:11:10;7.90;;;5.20;;
16775;SDS011;8505;49.456;8.164;2023-06-22T10:13:38;10.20;;;5.20;;
16775;SDS011;8505;49.456;8.164;2023-06-22T10:16:07;8.90;;;5.43;;
16775;SDS011;8505;49.456;8.164;2023-06-22T10:18:35;10.27;;;5.10;;
16775;SDS011;8505;49.456;8.164;2023-06-22T10:21:03;9.23;;;5.63;;
16775;SDS011;8505;49.456;8.164;2023-06-22T10:23:31;7.85;;;5.18;;
16775;SDS011;8505;49.456;8.164;2023-06-22T10:25:59;10.10;;;5.78;;
16775;SDS011;8505;49.456;8.164;2023-06-22T10:28:27;8.55;;;5.20;;
16775;SDS011;8505;49.456;8.164;2023-06-22T10:30:58;9.63;;;5.28;;
16775;SDS011;8505;49.456;8.164;2023-06-22T10:33:27;8.52;;;5.43;;
16775;SDS011;8505;49.456;8.164;2023-06-22T10:35:55;9.60;;;5.70;;
16775;SDS011;8505;49.456;8.164;2023-06-22T10:38:23;12.68;;;5.93;;
16775;SDS011;8505;49.456;8.164;2023-06-22T10:40:51;9.50;;;5.70;;
16775;SDS011;8505;49.456;8.164;2023-06-22T10:43:18;9.98;;;5.60;;
16775;SDS011;8505;49.456;8.164;2023-06-22T10:45:46;11.00;;;5.70;;
16775;SDS011;8505;49.456;8.164;2023-06-22T10:48:14;8.57;;;5.50;;
16775;SDS011;8505;49.456;8.164;2023-06-22T10:50:43;12.87;;;5.97;;
16775;SDS011;8505;49.456;8.164;2023-06-22T10:53:11;10.82;;;5.90;;
16775;SDS011;8505;49.456;8.164;2023-06-22T10:55:39;9.07;;;5.67;;
16775;SDS011;8505;49.456;8.164;2023-06-22T10:58:22;9.18;;;5.68;;
16775;SDS011;8505;49.456;8.164;2023-06-22T11:00:50;10.32;;;5.60;;
16775;SDS011;8505;49.456;8.164;2023-06-22T11:03:18;10.80;;;5.53;;
16775;SDS011;8505;49.456;8.164;2023-06-22T11:05:47;11.20;;;5.75;;
16775;SDS011;8505;49.456;8.164;2023-06-22T11:08:15;9.73;;;5.93;;
16775;SDS011;8505;49.456;8.164;2023-06-22T11:10:43;11.18;;;6.22;;
16775;SDS011;8505;49.456;8.164;2023-06-22T11:13:11;9.98;;;5.70;;
16775;SDS011;8505;49.456;8.164;2023-06-22T11:15:39;8.43;;;5.10;;
16775;SDS011;8505;49.456;8.164;2023-06-22T11:18:07;10.45;;;5.50;;
16775;SDS011;8505;49.456;8.164;2023-06-22T11:20:35;12.17;;;5.87;;
16775;SDS011;8505;49.456;8.164;2023-06-22T11:23:06;9.60;;;5.75;;
16775;SDS011;8505;49.456;8.164;2023-06-22T11:25:34;10.63;;;5.82;;
16775;SDS011;8505;49.456;8.164;2023-06-22T11:28:04;10.23;;;5.35;;
16775;SDS011;8505;49.456;8.164;2023-06-22T11:30:32;12.02;;;6.05;;
16775;SDS011;8505;49.456;8.164;2023-06-22T11:33:00;10.45;;;5.90;;
16775;SDS011;8505;49.456;8.164;2023-06-22T11:35:28;10.52;;;5.47;;
16775;SDS011;8505;49.456;8.164;2023-06-22T11:37:56;13.50;;;6.10;;
16775;SDS011;8505;49.456;8.164;2023-06-22T11:40:25;11.52;;;6.20;;
16775;SDS011;8505;49.456;8.164;2023-06-22T11:42:54;11.65;;;6.15;;
16775;SDS011;8505;49.456;8.164;2023-06-22T11:45:21;10.98;;;5.80;;
16775;SDS011;8505;49.456;8.164;2023-06-22T11:47:49;10.97;;;6.17;;
16775;SDS011;8505;49.456;8.164;2023-06-22T11:50:17;10.68;;;6.05;;
16775;SDS011;8505;49.456;8.164;2023-06-22T11:52:45;11.00;;;5.93;;
16775;SDS011;8505;49.456;8.164;2023-06-22T11:55:13;12.67;;;6.20;;
16775;SDS011;8505;49.456;8.164;2023-06-22T11:57:53;10.82;;;5.90;;
16775;SDS011;8505;49.456;8.164;2023-06-22T12:00:24;10.82;;;5.97;;
16775;SDS011;8505;49.456;8.164;2023-06-22T12:02:56;11.00;;;5.77;;
16775;SDS011;8505;49.456;8.164;2023-06-22T12:05:26;24.38;;;7.32;;
16775;SDS011;8505;49.456;8.164;2023-06-22T12:07:54;11.50;;;5.85;;
16775;SDS011;8505;49.456;8.164;2023-06-22T12:10:22;10.38;;;6.00;;
16775;SDS011;8505;49.456;8.164;2023-06-22T12:12:52;12.35;;;6.28;;
16775;SDS011;8505;49.456;8.164;2023-06-22T12:15:20;11.23;;;5.53;;
16775;SDS011;8505;49.456;8.164;2023-06-22T12:17:48;8.98;;;5.80;;
16775;SDS011;8505;49.456;8.164;2023-06-22T12:20:16;11.48;;;6.20;;
16775;SDS011;8505;49.456;8.164;2023-06-22T12:22:45;11.50;;;6.00;;
16775;SDS011;8505;49.456;8.164;2023-06-22T12:25:13;11.40;;;5.57;;
16775;SDS011;8505;49.456;8.164;2023-06-22T12:27:41;12.10;;;5.80;;
16775;SDS011;8505;49.456;8.164;2023-06-22T12:30:11;12.52;;;6.00;;
16775;SDS011;8505;49.456;8.164;2023-06-22T12:32:38;11.27;;;5.78;;
16775;SDS011;8505;49.456;8.164;2023-06-22T12:35:07;12.07;;;6.03;;
16775;SDS011;8505;49.456;8.164;2023-06-22T12:37:40;11.13;;;5.85;;
16775;SDS011;8505;49.456;8.164;2023-06-22T12:40:09;11.77;;;6.07;;
16775;SDS011;8505;49.456;8.164;2023-06-22T12:42:37;12.20;;;6.00;;
16775;SDS011;8505;49.456;8.164;2023-06-22T12:45:06;12.10;;;5.97;;
16775;SDS011;8505;49.456;8.164;2023-06-22T12:47:35;11.30;;;6.22;;
16775;SDS011;8505;49.456;8.164;2023-06-22T12:50:04;18.08;;;6.85;;
16775;SDS011;8505;49.456;8.164;2023-06-22T12:52:32;25.38;;;7.38;;
16775;SDS011;8505;49.456;8.164;2023-06-22T12:55:00;15.98;;;6.30;;
16775;SDS011;8505;49.456;8.164;2023-06-22T12:57:28;12.52;;;6.07;;
16775;SDS011;8505;49.456;8.164;2023-06-22T12:59:55;12.57;;;6.00;;
16775;SDS011;8505;49.456;8.164;2023-06-22T13:02:24;13.25;;;5.80;;
16775;SDS011;8505;49.456;8.164;2023-06-22T13:04:55;14.35;;;5.93;;
16775;SDS011;8505;49.456;8.164;2023-06-22T13:07:23;11.02;;;5.70;;
16775;SDS011;8505;49.456;8.164;2023-06-22T13:09:51;11.60;;;6.18;;
16775;SDS011;8505;49.456;8.164;2023-06-22T13:12:19;13.25;;;6.03;;
16775;SDS011;8505;49.456;8.164;2023-06-22T13:14:47;18.65;;;6.38;;
16775;SDS011;8505;49.456;8.164;2023-06-22T13:17:16;13.25;;;6.20;;
16775;SDS011;8505;49.456;8.164;2023-06-22T13:19:44;10.60;;;6.27;;
16775;SDS011;8505;49.456;8.164;2023-06-22T13:22:26;11.07;;;5.72;;
16775;SDS011;8505;49.456;8.164;2023-06-22T13:24:56;12.50;;;5.80;;
16775;SDS011;8505;49.456;8.164;2023-06-22T13:27:24;11.93;;;5.82;;
16775;SDS011;8505;49.456;8.164;2023-06-22T13:29:52;12.33;;;5.70;;
16775;SDS011;8505;49.456;8.164;2023-06-22T13:32:20;16.77;;;6.20;;
16775;SDS011;8505;49.456;8.164;2023-06-22T13:35:06;13.88;;;5.80;;
16775;SDS011;8505;49.456;8.164;2023-06-22T13:37:53;11.40;;;6.25;;
16775;SDS011;8505;49.456;8.164;2023-06-22T13:40:20;11.02;;;5.80;;
16775;SDS011;8505;49.456;8.164;2023-06-22T13:42:48;11.13;;;5.80;;
16775;SDS011;8505;49.456;8.164;2023-06-22T13:45:33;13.00;;;5.88;;
16775;SDS011;8505;49.456;8.164;2023-06-22T13:48:01;13.43;;;5.93;;
16775;SDS011;8505;49.456;8.164;2023-06-22T13:50:47;14.00;;;5.90;;
16775;SDS011;8505;49.456;8.164;2023-06-22T13:53:16;14.40;;;5.97;;
16775;SDS011;8505;49.456;8.164;2023-06-22T13:55:44;11.55;;;5.80;;
16775;SDS011;8505;49.456;8.164;2023-06-22T13:58:13;12.32;;;5.53;;
16775;SDS011;8505;49.456;8.164;2023-06-22T14:00:41;13.55;;;5.90;;
16775;SDS011;8505;49.456;8.164;2023-06-22T14:03:09;14.02;;;6.15;;
16775;SDS011;8505;49.456;8.164;2023-06-22T14:05:37;14.20;;;5.93;;
16775;SDS011;8505;49.456;8.164;2023-06-22T14:08:05;13.07;;;5.88;;
16775;SDS011;8505;49.456;8.164;2023-06-22T14:10:54;12.27;;;6.30;;
16775;SDS011;8505;49.456;8.164;2023-06-22T14:13:22;13.68;;;6.47;;
16775;SDS011;8505;49.456;8.164;2023-06-22T14:15:50;13.73;;;6.43;;
16775;SDS011;8505;49.456;8.164;2023-06-22T14:18:18;14.48;;;6.57;;
16775;SDS011;8505;49.456;8.164;2023-06-22T14:20:48;13.57;;;6.43;;
16775;SDS011;8505;49.456;8.164;2023-06-22T14:23:18;18.35;;;6.35;;
16775;SDS011;8505;49.456;8.164;2023-06-22T14:25:46;13.18;;;6.32;;
16775;SDS011;8505;49.456;8.164;2023-06-22T14:28:15;14.20;;;6.20;;
16775;SDS011;8505;49.456;8.164;2023-06-22T14:30:43;12.03;;;6.53;;
16775;SDS011;8505;49.456;8.164;2023-06-22T14:33:11;15.10;;;6.45;;
16775;SDS011;8505;49.456;8.164;2023-06-22T14:35:39;14.88;;;6.40;;
16775;SDS011;8505;49.456;8.164;2023-06-22T14:38:07;11.73;;;6.20;;
16775;SDS011;8505;49.456;8.164;2023-06-22T14:40:35;15.88;;;6.47;;
16775;SDS011;8505;49.456;8.164;2023-06-22T14:43:24;15.43;;;6.63;;
16775;SDS011;8505;49.456;8.164;2023-06-22T14:45:52;11.73;;;6.63;;
16775;SDS011;8505;49.456;8.164;2023-06-22T14:48:20;14.20;;;6.57;;
16775;SDS011;8505;49.456;8.164;2023-06-22T14:50:48;16.02;;;6.53;;
16775;SDS011;8505;49.456;8.164;2023-06-22T14:53:16;15.70;;;7.07;;
16775;SDS011;8505;49.456;8.164;2023-06-22T14:55:44;16.63;;;6.90;;
16775;SDS011;8505;49.456;8.164;2023-06-22T14:58:11;15.75;;;6.53;;